»·PEaware :: N86LW KGEG-KHQM

N86LW :: KGEG-KHQM

FLIGHT INFORMATION

Flight Status: Arrived
Operator: Privately registered:
United States
More flights under this callsign
Pilot: Anonymous 30613 (30613)
Aircraft: PIPER PA-28R-201 ARROW
(P28R)
More flights by this aircraft type
Origin: KGEG Spokane Intl
United States
Destination: KHQM Bowerman
United States
More flights between these airports :: More routes between these airports
Route:
File this flight plan on PilotEdge
Remarks:
Altitude:
(Current/Filed)
3,500ft
Speed:
(Current/Filed)
130kts
Departed: 07-Sep-20 12:38 PM
Arrived: 07-Sep-20 02:57 PM
Distance/Time
Traveled:
263nm/2:19
Distance/Time
To Go:
Arrived

Flight Plot

Page will automatically refresh every two minutes.

Flight plan parsing failed; only flown route is shown


Map Options




Map Legend


Flown Route
Filed Route
Departure Airport
Arrival Airport
Navaid (VOR, NDB)
Fix

Horizontal Profiles

Position Reports

Time Latitude Longitude Heading Altitude Ground
Speed
07-Sep-20 12:20 47.623773 -117.524481 269 2350ft 0kts
07-Sep-20 12:21 47.623773 -117.524481 269 2350ft 0kts
07-Sep-20 12:22 47.623773 -117.524481 269 2350ft 0kts
07-Sep-20 12:23 47.623773 -117.524481 269 2350ft 0kts
07-Sep-20 12:24 47.623773 -117.524481 269 2350ft 0kts
07-Sep-20 12:25 47.623773 -117.524481 269 2350ft 0kts
07-Sep-20 12:26 47.623773 -117.524481 269 2350ft 0kts
07-Sep-20 12:27 47.623773 -117.524481 269 2350ft 0kts
07-Sep-20 12:28 47.623773 -117.524488 269 2350ft 0kts
07-Sep-20 12:29 47.622849 -117.527397 225 2354ft 18kts
07-Sep-20 12:30 47.619191 -117.532915 223 2363ft 19kts
07-Sep-20 12:31 47.615423 -117.538550 225 2372ft 19kts
07-Sep-20 12:32 47.611504 -117.544436 224 2381ft 19kts
07-Sep-20 12:33 47.609177 -117.548607 21 2387ft 0kts
07-Sep-20 12:34 47.609181 -117.548605 13 2387ft 0kts
07-Sep-20 12:35 47.609470 -117.548982 316 2385ft 0kts
07-Sep-20 12:36 47.610438 -117.549462 37 2381ft 15kts
07-Sep-20 12:37 47.621534 -117.532350 47 2870ft 64kts
07-Sep-20 12:38 47.632941 -117.512908 46 3570ft 60kts
07-Sep-20 12:39 47.645517 -117.493093 48 4138ft 71kts
07-Sep-20 12:40 47.659221 -117.474233 44 4787ft 67kts
07-Sep-20 12:41 47.671790 -117.453444 47 5343ft 71kts
07-Sep-20 12:42 47.684453 -117.431975 53 5920ft 68kts
07-Sep-20 12:43 47.698368 -117.412797 44 6389ft 75kts
07-Sep-20 12:44 47.721366 -117.399605 340 6449ft 126kts
07-Sep-20 12:45 47.720270 -117.455611 252 6569ft 156kts
07-Sep-20 12:46 47.706219 -117.517988 256 6563ft 160kts
07-Sep-20 12:47 47.692990 -117.581486 257 6558ft 161kts
07-Sep-20 12:48 47.679715 -117.645136 258 6553ft 162kts
07-Sep-20 12:50 47.666420 -117.708591 257 6558ft 160kts
07-Sep-20 12:51 47.653213 -117.771312 257 6555ft 158kts
07-Sep-20 12:52 47.640241 -117.833338 257 6556ft 157kts
07-Sep-20 12:53 47.627143 -117.895209 257 6552ft 156kts
07-Sep-20 12:54 47.614078 -117.956852 258 6562ft 157kts
07-Sep-20 12:55 47.600949 -118.018692 257 6558ft 157kts
07-Sep-20 12:56 47.589542 -118.080913 260 6560ft 156kts
07-Sep-20 12:57 47.577923 -118.143039 260 6559ft 157kts
07-Sep-20 12:58 47.566203 -118.205708 260 6554ft 157kts
07-Sep-20 12:59 47.553669 -118.268896 242 6494ft 162kts
07-Sep-20 13:00 47.520240 -118.311151 216 6646ft 155kts
07-Sep-20 13:01 47.487021 -118.351115 217 6902ft 148kts
07-Sep-20 13:02 47.474206 -118.404231 269 7351ft 135kts
07-Sep-20 13:03 47.466715 -118.457909 266 7809ft 132kts
07-Sep-20 13:03 47.459649 -118.501600 265 8200ft 130kts
07-Sep-20 13:05 47.450821 -118.562343 271 8732ft 127kts
07-Sep-20 13:06 47.444540 -118.613712 269 9190ft 127kts
07-Sep-20 13:07 47.437956 -118.665757 268 9571ft 133kts
07-Sep-20 13:07 47.432068 -118.711542 266 9818ft 138kts
07-Sep-20 13:08 47.424712 -118.767986 266 10117ft 140kts
07-Sep-20 13:10 47.416043 -118.834313 266 10465ft 141kts
07-Sep-20 13:11 47.408566 -118.891331 267 10766ft 141kts
07-Sep-20 13:11 47.402301 -118.938934 268 11020ft 141kts
07-Sep-20 13:12 47.394777 -118.995820 269 11324ft 140kts
07-Sep-20 13:13 47.387305 -119.052060 270 11630ft 138kts
07-Sep-20 13:14 47.379930 -119.107311 271 11936ft 136kts
07-Sep-20 13:15 47.372616 -119.161928 271 12244ft 135kts
07-Sep-20 13:16 47.365315 -119.217014 271 12426ft 144kts
07-Sep-20 13:17 47.357261 -119.277372 270 12424ft 154kts
07-Sep-20 13:18 47.348738 -119.339760 270 12431ft 155kts
07-Sep-20 13:19 47.340179 -119.402494 269 12468ft 153kts
07-Sep-20 13:20 47.331729 -119.464397 269 12478ft 154kts
07-Sep-20 13:21 47.323236 -119.526462 269 12479ft 154kts
07-Sep-20 13:22 47.314664 -119.588725 269 12479ft 154kts
07-Sep-20 13:23 47.306076 -119.650875 268 12479ft 155kts
07-Sep-20 13:24 47.297655 -119.713232 268 12477ft 155kts
07-Sep-20 13:25 47.261810 -119.747413 184 12477ft 166kts
07-Sep-20 13:26 47.215811 -119.756740 174 12475ft 165kts
07-Sep-20 13:27 47.171361 -119.746592 161 12478ft 162kts
07-Sep-20 13:28 47.126981 -119.734759 161 12478ft 162kts
07-Sep-20 13:29 47.082806 -119.722956 161 12478ft 162kts
07-Sep-20 13:30 47.038435 -119.711113 161 12479ft 162kts
07-Sep-20 13:31 46.993992 -119.698396 161 12366ft 171kts
07-Sep-20 13:32 46.943223 -119.680442 161 11419ft 199kts
07-Sep-20 13:33 46.889144 -119.663517 192 10689ft 189kts
07-Sep-20 13:34 46.839415 -119.675872 199 10593ft 173kts
07-Sep-20 13:35 46.816594 -119.712812 289 10793ft 112kts
07-Sep-20 13:36 46.822821 -119.753955 303 11073ft 99kts
07-Sep-20 13:37 46.831998 -119.791967 303 11355ft 99kts
07-Sep-20 13:38 46.841178 -119.829489 303 11636ft 97kts
07-Sep-20 13:39 46.850343 -119.866654 303 11917ft 96kts
07-Sep-20 13:40 46.859353 -119.903101 303 12196ft 94kts
07-Sep-20 13:41 46.868042 -119.939090 303 12474ft 93kts
07-Sep-20 13:42 46.876365 -119.974594 303 12749ft 91kts
07-Sep-20 13:43 46.886044 -120.013330 304 12554ft 117kts
07-Sep-20 13:44 46.898059 -120.057494 304 12468ft 114kts
07-Sep-20 13:45 46.909217 -120.100691 304 12418ft 117kts
07-Sep-20 13:46 46.922353 -120.148437 304 11948ft 133kts
07-Sep-20 13:47 46.926840 -120.209121 278 11034ft 168kts
07-Sep-20 13:48 46.924036 -120.275991 279 10465ft 152kts
07-Sep-20 13:49 46.922298 -120.334238 282 10464ft 136kts
07-Sep-20 13:50 46.921076 -120.388660 282 10464ft 132kts
07-Sep-20 13:51 46.919774 -120.442575 279 10464ft 133kts
07-Sep-20 13:52 46.909190 -120.497117 265 10464ft 140kts
07-Sep-20 13:53 46.897180 -120.551162 267 10464ft 138kts
07-Sep-20 13:54 46.885769 -120.604532 267 10464ft 136kts
07-Sep-20 13:55 46.874492 -120.657414 267 10464ft 135kts
07-Sep-20 13:56 46.863295 -120.709870 267 10464ft 135kts
07-Sep-20 13:57 46.852006 -120.762549 267 10463ft 135kts
07-Sep-20 13:58 46.840721 -120.815051 267 10463ft 135kts
07-Sep-20 13:59 46.829392 -120.867629 266 10462ft 135kts
07-Sep-20 14:00 46.818095 -120.919952 266 10461ft 135kts
07-Sep-20 14:01 46.811543 -120.972278 275 10461ft 130kts
07-Sep-20 14:02 46.813046 -121.022915 290 10461ft 125kts
07-Sep-20 14:03 46.819854 -121.073834 298 10463ft 127kts
07-Sep-20 14:04 46.834503 -121.121016 311 10464ft 128kts
07-Sep-20 14:05 46.855954 -121.162886 316 10465ft 130kts
07-Sep-20 14:06 46.879063 -121.205766 290 10077ft 165kts
07-Sep-20 14:07 46.873536 -121.275316 257 9423ft 149kts
07-Sep-20 14:08 46.862033 -121.331430 255 9648ft 137kts
07-Sep-20 14:09 46.850252 -121.383245 252 9943ft 133kts
07-Sep-20 14:10 46.837653 -121.433892 252 10242ft 132kts
07-Sep-20 14:11 46.824925 -121.485102 252 10412ft 140kts
07-Sep-20 14:12 46.808918 -121.538972 246 10410ft 147kts
07-Sep-20 14:13 46.791322 -121.593104 246 10409ft 148kts
07-Sep-20 14:14 46.774136 -121.647703 250 10406ft 147kts
07-Sep-20 14:15 46.759178 -121.703272 249 10402ft 147kts
07-Sep-20 14:16 46.759529 -121.760641 284 10402ft 143kts
07-Sep-20 14:17 46.766462 -121.818095 281 10402ft 144kts
07-Sep-20 14:18 46.772151 -121.875949 281 10402ft 144kts
07-Sep-20 14:19 46.777622 -121.933749 284 10387ft 146kts
07-Sep-20 14:20 46.783192 -121.992881 284 10383ft 147kts
07-Sep-20 14:21 46.788725 -122.052060 284 10384ft 147kts
07-Sep-20 14:22 46.794087 -122.110056 284 10457ft 144kts
07-Sep-20 14:23 46.799505 -122.168414 284 10457ft 145kts
07-Sep-20 14:24 46.804878 -122.226777 284 10457ft 145kts
07-Sep-20 14:25 46.810247 -122.285455 284 10458ft 145kts
07-Sep-20 14:26 46.815564 -122.343910 284 10457ft 145kts
07-Sep-20 14:27 46.820878 -122.402650 284 10443ft 146kts
07-Sep-20 14:28 46.826681 -122.465537 283 10000ft 162kts
07-Sep-20 14:29 46.832568 -122.531214 283 9551ft 163kts
07-Sep-20 14:30 46.838424 -122.597154 283 9100ft 164kts
07-Sep-20 14:31 46.844259 -122.663288 283 8647ft 164kts
07-Sep-20 14:32 46.850999 -122.729196 285 8183ft 164kts
07-Sep-20 14:33 46.858072 -122.795294 285 7720ft 164kts
07-Sep-20 14:34 46.864986 -122.861280 285 7258ft 164kts
07-Sep-20 14:35 46.876479 -122.924890 291 6801ft 161kts
07-Sep-20 14:36 46.887721 -122.987348 293 6525ft 152kts
07-Sep-20 14:37 46.897943 -123.045494 292 6527ft 144kts
07-Sep-20 14:38 46.907998 -123.102295 293 6522ft 143kts
07-Sep-20 14:39 46.917974 -123.158836 293 6517ft 144kts
07-Sep-20 14:40 46.927974 -123.216141 292 6370ft 152kts
07-Sep-20 14:41 46.938794 -123.278261 293 5914ft 160kts
07-Sep-20 14:42 46.949179 -123.338358 294 5882ft 149kts
07-Sep-20 14:43 46.960425 -123.401931 290 5141ft 177kts
07-Sep-20 14:44 46.984126 -123.463299 310 4391ft 176kts
07-Sep-20 14:46 47.012704 -123.522683 304 3795ft 178kts
07-Sep-20 14:47 47.013155 -123.586608 263 3416ft 135kts
07-Sep-20 14:48 47.008209 -123.632660 261 2470ft 109kts
07-Sep-20 14:49 47.003980 -123.666843 259 2312ft 72kts
07-Sep-20 14:50 46.999922 -123.699805 259 2274ft 93kts
07-Sep-20 14:51 46.995166 -123.739210 259 2136ft 100kts
07-Sep-20 14:52 46.990438 -123.778328 259 2106ft 94kts
07-Sep-20 14:53 46.986000 -123.815027 259 1812ft 84kts
07-Sep-20 14:54 46.982058 -123.847527 258 1308ft 80kts
07-Sep-20 14:55 46.978130 -123.879821 257 830ft 78kts
07-Sep-20 14:56 46.974608 -123.908048 254 358ft 66kts
07-Sep-20 14:57 46.971638 -123.932880 260 16ft 37kts
07-Sep-20 14:58 46.971527 -123.939971 355 17ft 9kts
07-Sep-20 14:58 46.972392 -123.938962 175 16ft 0kts

Navigation Log

Ident Type
Flight plan parsing failed, navigation log unavailable